This demonstration page uses our WeatherBlox Daily Observations layout. Learn more.

Left ArrowRight Arrow

Hourly Observations for December 29, 2020

Temp ( °F °C ) Dew Point ( °F °C ) Humidity (%) Winds ( mph kmh ) Pressure ( in mb ) Visibility ( mi km ) Precip ( " mm )
12:51 am 00:51 Mostly Cloudy 50 10 33 0.6 52 52 NW 14 22 29.79 1009 10 16.0934 0 0
1:51 am 01:51 Cloudy 50 10 32 0 50 50 NW 15 24 29.8 1009 10 16.0934 0 0
2:51 am 02:51 Mostly Cloudy 49 9.4 32 0 52 52 NW 18 30 29.79 1009 10 16.0934 0 0
3:51 am 03:51 Mostly Cloudy 46 7.8 34 1.1 63 63 WNW 16 26 29.8 1009 10 16.0934 0 0
4:51 am 04:51 Mostly Cloudy 44 6.7 36 2.2 73 73 W 17 28 29.81 1010 10 16.0934 0 0
5:51 am 05:51 Cloudy 44 6.7 35 1.7 71 71 W 17 28 29.85 1011 10 16.0934 0 0
6:51 am 06:51 Partly Cloudy 42 5.6 33 0.6 71 71 NW 10 17 29.89 1012 10 16.0934 0 0
7:51 am 07:51 Mostly Cloudy 43 6.1 33 0.6 68 68 WNW 12 19 29.9 1013 10 16.0934 0 0
8:51 am 08:51 Partly Cloudy 46 7.8 33 0.6 61 61 NW 8 13 29.92 1013 10 16.0934 0 0
9:51 am 09:51 Mostly Cloudy 50 10 33 0.6 52 52 WNW 18 30 29.93 1014 10 16.0934 0 0
10:51 am 10:51 Sunny 51 10.6 32 0 48 48 WNW 20 31 29.93 1014 10 16.0934 0 0
11:51 am 11:51 Sunny 53 11.7 28 -2.2 38 38 WNW 22 35 29.91 1013 10 16.0934 0 0
12:51 pm 12:51 Sunny 54 12.2 25 -3.9 33 33 NW 22 35 29.88 1012 10 16.0934 0 0
1:51 pm 13:51 Sunny 55 12.8 24 -4.4 30 30 WNW 17 28 29.86 1011 10 16.0934 0 0
2:51 pm 14:51 Sunny 55 12.8 24 -4.4 30 30 WNW 23 37 29.85 1011 10 16.0934 0 0
3:51 pm 15:51 Sunny 54 12.2 25 -3.9 33 33 NW 21 33 29.88 1012 10 16.0934 0 0
4:51 pm 16:51 Partly Cloudy 48 8.9 30 -1.1 50 50 NW 17 28 29.93 1013 10 16.0934 0 0
5:51 pm 17:51 Clear 46 7.8 29 -1.7 51 51 WNW 12 19 29.95 1014 10 16.0934 0 0
6:51 pm 18:51 Clear 43 6.1 30 -1.1 60 60 NNW 8 13 29.98 1015 10 16.0934 0 0
7:51 pm 19:51 Clear 40 4.4 30 -1.1 68 68 NW 6 9 29.99 1016 10 16.0934 0 0
8:51 pm 20:51 Clear 40 4.4 30 -1.1 68 68 NW 12 19 29.99 1016 10 16.0934 0 0
9:51 pm 21:51 Clear 41 5 31 -0.6 67 67 NW 13 20 29.99 1016 10 16.0934 0 0
10:51 pm 22:51 Clear 40 4.4 30 -1.1 68 68 NW 8 13 30 1016 10 16.0934 0 0
11:51 pm 23:51 Clear 37 2.8 30 -1.1 76 76 NW 9 15 30 1016 10 16.0934 0 0

Powered by AerisWeather